Airfield :
LOGIN :

Register | Disclaimer

   EN    FR    IT 

 










Legend :    VFR   Marginal VFR   IFR   Intensive IFR   Very Intensive IFR
Visi :
Ceiling :
>= 8 km
>= 3000ft
5 to 8 km
1000 to 3000 ft
1500m to 5 km
500 to 1000 ft
800 to 1500m
200 to 500 ft
< 800m
< 200 ft
Symbols :   Thunderstorms  Fog  Heavy snow  Heavy precipitations  Wind > 20 kt
SIGMETs :     Misc.  Thunderstorms  Icing  Turbulence  Mountain Waves  Volcanic Ashes







- Airport Elevation : 357 ft
- IATA code : TUF
- Download approach charts


LFOT - Tours

CURRENT METAR :
  • 150030Z AUTO 24010KT 9999 FEW036 05/02 Q0999 BECMG 26015G25KT

EXPIRED METARs :
  • 150000Z AUTO 23010KT CAVOK 05/02 Q0999 BECMG 26015G25KT
  • 142330Z AUTO 23011KT CAVOK 05/02 Q0999 BECMG 26015G25KT
  • 142300Z AUTO 24011KT CAVOK 05/02 Q0999 BECMG 24015G25KT
  • 142230Z AUTO 24011KT CAVOK 05/03 Q0999 BECMG 24015G25KT
  • 142200Z AUTO 24010KT CAVOK 05/03 Q0999 BECMG 24015G25KT

TAF TAF LFOT
Valid from the 15 at 00:00 until the 16 at 00:00 UTC


142300Z 1500/1524 26015G25KT CAVOK
BECMG 1502/1504 BKN030
TEMPO 1509/1517 4000 SHRA BKN011 SCT020TCU
PROB30
TEMPO 1513/1516 32018G30KT 2500 -TSRA BKN025CB
BECMG 1518/1520 29012KT
No reported NOTAMs for that airfield.
1 SIGMET reported for the Paris FIR (LFFF) :
 
Severe turbulence
LFFF SIGMET 14 VALID 142300/150300 LFPW
LFFF PARIS FIR/UIR SEV TURB FCST SE OF LINE N4700 E00215 - N4730 E00415 FL170/280 STNR WKN=



MET'MAP, your aeronautical weather chart ! - Copyright ORBIFLY December 2007 - Disclaimer

ORBIFLY MET'MAP TEAM :

Programming & Development : Alexandra Zaïnal
Concept & Development : Baudouin d'Aumeries
Co-Development & Prog : Marc-Olivier Méhu
Technical & hardware support : Manuel Goepfert

Contact : metmap@orbifly.com




SOURCES & CREDITS :

   NOAA